createdAt,value
2022-09-19T00:01:37.750Z,101824.22
2022-09-19T00:07:01.071Z,101821.66
2022-09-19T00:12:23.343Z,101824.69
2022-09-19T00:17:45.085Z,101816.59
2022-09-19T00:23:25.386Z,101815.97
2022-09-19T00:28:47.765Z,101821.75
2022-09-19T00:34:10.447Z,101819.22
2022-09-19T00:39:32.151Z,101824.13
2022-09-19T00:45:01.080Z,101827.78
2022-09-19T00:50:28.317Z,101826.53
2022-09-19T00:55:56.358Z,101829.06
2022-09-19T01:01:18.222Z,101830.63
2022-09-19T01:06:56.360Z,101833.41
2022-09-19T01:12:47.837Z,101834.69
2022-09-19T01:18:10.677Z,101838.59
2022-09-19T01:23:36.850Z,101832.16
2022-09-19T01:29:17.670Z,101837.72
2022-09-19T01:34:51.752Z,101851.84
2022-09-19T01:40:14.724Z,101855.91
2022-09-19T01:45:41.391Z,101856.97
2022-09-19T01:51:30.100Z,101849.75
2022-09-19T01:56:54.787Z,101860.88
2022-09-19T02:02:30.175Z,101853.63
2022-09-19T02:08:04.287Z,101864.72
2022-09-19T02:13:28.811Z,101857.66
2022-09-19T02:18:55.078Z,101861.31
2022-09-19T02:24:23.233Z,101855.97
2022-09-19T02:29:49.507Z,101869.00
2022-09-19T02:35:14.387Z,101865.63
2022-09-19T02:40:45.260Z,101867.31
2022-09-19T02:46:15.882Z,101869.25
2022-09-19T02:51:47.919Z,101853.69
2022-09-19T02:57:15.671Z,101851.13
2022-09-19T03:02:41.276Z,101864.16
2022-09-19T03:08:05.142Z,101868.47
2022-09-19T03:13:27.602Z,101869.09
2022-09-19T03:18:56.825Z,101864.38
2022-09-19T03:24:18.480Z,101864.84
2022-09-19T03:29:40.126Z,101870.41
2022-09-19T03:35:03.979Z,101863.16
2022-09-19T03:40:26.570Z,101867.00
2022-09-19T03:45:51.098Z,101862.97
2022-09-19T03:51:14.454Z,101865.28
2022-09-19T03:56:36.102Z,101873.00
2022-09-19T04:01:59.491Z,101878.53
2022-09-19T04:07:21.228Z,101877.72
2022-09-19T04:12:43.087Z,101876.84
2022-09-19T04:18:05.274Z,101872.38
2022-09-19T04:23:27.367Z,101883.47
2022-09-19T04:28:48.982Z,101884.53
2022-09-19T04:34:17.876Z,101890.09
2022-09-19T04:39:39.635Z,101893.09
2022-09-19T04:45:01.431Z,101891.41
2022-09-19T04:50:23.068Z,101893.34
2022-09-19T04:55:44.907Z,101899.97
2022-09-19T05:01:06.731Z,101899.97
2022-09-19T05:06:29.778Z,101898.25
2022-09-19T05:11:51.504Z,101898.25
2022-09-19T05:17:13.400Z,101909.81
2022-09-19T05:22:35.085Z,101922.59
2022-09-19T05:28:07.403Z,101918.75
2022-09-19T05:33:29.180Z,101923.69
2022-09-19T05:38:50.891Z,101925.63
2022-09-19T05:44:14.442Z,101933.06
2022-09-19T05:49:36.226Z,101932.00
2022-09-19T05:54:57.898Z,101935.41
2022-09-19T06:00:20.997Z,101940.50
2022-09-19T06:05:44.966Z,101945.19
2022-09-19T06:11:07.725Z,101938.81
2022-09-19T06:16:29.467Z,101945.81
2022-09-19T06:21:52.411Z,101951.75
2022-09-19T06:27:14.038Z,101956.41
2022-09-19T06:32:39.171Z,101973.47
2022-09-19T06:38:04.343Z,101972.38
2022-09-19T06:43:27.416Z,101976.63
2022-09-19T06:48:52.114Z,101986.66
2022-09-19T06:54:13.828Z,101991.13
2022-09-19T06:59:35.463Z,101994.53
2022-09-19T07:04:57.119Z,102003.50
2022-09-19T07:10:20.956Z,101999.66
2022-09-19T07:15:43.051Z,102000.19
2022-09-19T07:21:04.907Z,102003.53
2022-09-19T07:26:26.676Z,102011.78
2022-09-19T07:31:48.401Z,102019.44
2022-09-19T07:37:10.141Z,102022.59
2022-09-19T07:42:31.837Z,102026.41
2022-09-19T07:47:54.071Z,102028.78
2022-09-19T07:53:20.944Z,102043.75
2022-09-19T07:58:42.620Z,102043.34
2022-09-19T08:04:04.293Z,102050.22
2022-09-19T08:09:25.921Z,102056.84
2022-09-19T08:14:47.897Z,102062.66
2022-09-19T08:20:09.790Z,102066.50
2022-09-19T08:25:33.956Z,102076.53
2022-09-19T08:31:01.080Z,102076.28
2022-09-19T08:36:23.511Z,102086.53
2022-09-19T08:42:09.701Z,102081.59
2022-09-19T08:47:35.245Z,102089.31
2022-09-19T08:52:59.479Z,102096.41
2022-09-19T08:58:25.528Z,102094.25
2022-09-19T09:04:08.627Z,102094.25
2022-09-19T09:09:35.609Z,102100.25
2022-09-19T09:15:43.370Z,102100.91
2022-09-19T09:21:07.569Z,102100.25
2022-09-19T09:26:38.008Z,102094.72
2022-09-19T09:32:24.783Z,102093.41
2022-09-19T09:38:03.557Z,102096.63
2022-09-19T09:43:31.299Z,102095.78
2022-09-19T09:48:53.999Z,102101.97
2022-09-19T09:54:59.192Z,102087.00
2022-09-19T10:00:39.723Z,102089.16
2022-09-19T10:06:26.600Z,102094.25
2022-09-19T10:17:58.736Z,102095.53
2022-09-19T10:23:26.837Z,102099.63
2022-09-19T10:28:55.106Z,102097.94
2022-09-19T10:34:37.497Z,102107.13
2022-09-19T10:40:05.812Z,102102.22
2022-09-19T10:45:37.804Z,102096.06
2022-09-19T10:51:00.756Z,102095.19
2022-09-19T10:56:24.431Z,102100.75
2022-09-19T11:02:25.416Z,102091.34
2022-09-19T11:07:51.876Z,102088.81
2022-09-19T11:13:20.873Z,102079.41
2022-09-19T11:19:28.264Z,102081.94
2022-09-19T11:25:05.697Z,102076.41
2022-09-19T11:30:28.443Z,102085.56
2022-09-19T11:36:05.330Z,102080.19
2022-09-19T11:41:39.142Z,102073.34
2022-09-19T11:47:24.294Z,102067.34
2022-09-19T11:53:13.746Z,102067.97
2022-09-19T11:58:45.705Z,102058.75
2022-09-19T12:04:25.709Z,102060.47
2022-09-19T12:09:53.524Z,102064.13
2022-09-19T12:15:18.628Z,102064.94
2022-09-19T12:20:44.219Z,102057.88
2022-09-19T12:26:10.977Z,102067.22
2022-09-19T12:31:38.268Z,102065.91
2022-09-19T12:37:10.809Z,102070.16
2022-09-19T12:42:56.096Z,102059.22
2022-09-19T12:48:25.484Z,102065.56
2022-09-19T12:53:57.131Z,102068.28
2022-09-19T12:59:24.832Z,102064.00
2022-09-19T13:04:58.809Z,102060.19
2022-09-19T13:10:40.899Z,102061.41
2022-09-19T13:16:08.696Z,102076.03
2022-09-19T13:22:06.237Z,102065.84
2022-09-19T13:27:27.939Z,102073.88
2022-09-19T13:32:56.255Z,102080.84
2022-09-19T13:38:26.972Z,102071.09
2022-09-19T13:44:01.455Z,102079.53
2022-09-19T13:49:32.708Z,102073.81
2022-09-19T13:55:20.993Z,102077.28
2022-09-19T14:00:46.060Z,102083.78
2022-09-19T14:09:59.451Z,102077.84
2022-09-19T14:12:40.129Z,102075.50
2022-09-19T14:18:14.194Z,102070.66
2022-09-19T14:23:43.081Z,102074.66
2022-09-19T14:29:26.041Z,102065.78
2022-09-19T14:34:49.925Z,102065.25
2022-09-19T14:40:39.108Z,102060.81
2022-09-19T14:46:21.871Z,102051.84
2022-09-19T14:52:01.507Z,102057.06
2022-09-19T14:57:23.976Z,102062.75
2022-09-19T15:02:46.030Z,102066.56
2022-09-19T15:08:30.261Z,102058.59
2022-09-19T15:13:51.879Z,102069.47
2022-09-19T15:19:13.559Z,102067.06
2022-09-19T15:24:35.389Z,102067.22
2022-09-19T15:29:58.895Z,102072.78
2022-09-19T15:35:22.257Z,102087.31
2022-09-19T15:40:44.530Z,102083.44
2022-09-19T15:46:32.081Z,102081.03
2022-09-19T15:52:01.408Z,102098.56
2022-09-19T15:57:33.481Z,102088.53
2022-09-19T16:03:00.824Z,102091.19
2022-09-19T16:08:48.644Z,102089.94
2022-09-19T16:14:20.010Z,102103.31
2022-09-19T16:19:44.665Z,102103.88
2022-09-19T16:25:06.686Z,102110.38
2022-09-19T16:30:28.450Z,102116.25
2022-09-19T16:35:57.447Z,102114.34
2022-09-19T16:41:23.918Z,102120.84
2022-09-19T16:46:59.305Z,102119.59
2022-09-19T16:52:25.746Z,102118.06
2022-09-19T16:57:47.399Z,102135.84
2022-09-19T17:03:11.529Z,102129.69
2022-09-19T17:08:33.336Z,102144.03
2022-09-19T17:13:54.981Z,102137.69
2022-09-19T17:19:16.641Z,102149.56
2022-09-19T17:24:40.346Z,102151.63
2022-09-19T17:30:02.096Z,102161.47
2022-09-19T17:35:23.997Z,102165.34
2022-09-19T17:40:48.812Z,102165.97
2022-09-19T17:46:13.438Z,102167.88
2022-09-19T17:51:35.402Z,102181.59
2022-09-19T17:56:57.941Z,102170.91
2022-09-19T18:02:38.200Z,102170.28
2022-09-19T18:08:04.210Z,102177.31
2022-09-19T18:13:25.938Z,102168.75
2022-09-19T18:18:47.864Z,102179.88
2022-09-19T18:24:10.884Z,102180.72
2022-09-19T18:29:33.564Z,102193.31
2022-09-19T18:34:55.815Z,102201.66
2022-09-19T18:40:17.997Z,102191.34
2022-09-19T18:45:40.468Z,102198.03
2022-09-19T18:51:11.711Z,102194.34
2022-09-19T18:56:33.957Z,102194.03
2022-09-19T19:01:57.275Z,102192.00
2022-09-19T19:07:19.116Z,102196.91
2022-09-19T19:12:46.771Z,102209.91
2022-09-19T19:18:10.962Z,102211.09
2022-09-19T19:23:33.450Z,102215.81
2022-09-19T19:28:55.614Z,102213.53
2022-09-19T19:34:17.663Z,102213.06
2022-09-19T19:39:39.280Z,102220.09
2022-09-19T19:45:03.525Z,102228.22
2022-09-19T19:50:25.390Z,102214.63
2022-09-19T19:55:47.116Z,102218.25
2022-09-19T20:01:17.937Z,102215.97
2022-09-19T20:06:44.562Z,102211.72
2022-09-19T20:12:06.488Z,102199.09
2022-09-19T20:17:28.778Z,102188.53
2022-09-19T20:22:51.087Z,102196.38
2022-09-19T20:28:13.192Z,102202.53
2022-09-19T20:33:34.851Z,102212.56
2022-09-19T20:38:57.751Z,102211.19
2022-09-19T20:44:21.679Z,102209.38
2022-09-19T20:49:43.400Z,102225.78
2022-09-19T20:55:05.978Z,102221.63
2022-09-19T21:00:27.600Z,102224.75
2022-09-19T21:05:53.320Z,102232.53
2022-09-19T21:11:16.107Z,102239.88
2022-09-19T21:16:39.962Z,102244.06
2022-09-19T21:22:02.644Z,102239.19
2022-09-19T21:27:24.477Z,102229.84
2022-09-19T21:32:46.118Z,102242.53
2022-09-19T21:38:07.768Z,102242.97
2022-09-19T21:43:33.361Z,102239.81
2022-09-19T21:48:55.479Z,102249.69
2022-09-19T21:54:17.102Z,102244.59
2022-09-19T21:59:38.796Z,102243.13
2022-09-19T22:05:00.410Z,102232.44
2022-09-19T22:10:22.226Z,102228.44
2022-09-19T22:15:43.851Z,102230.16
2022-09-19T22:21:06.333Z,102229.75
2022-09-19T22:26:29.914Z,102235.53
2022-09-19T22:31:51.639Z,102222.06
2022-09-19T22:37:13.487Z,102228.13
2022-09-19T22:42:35.279Z,102230.28
2022-09-19T22:47:56.954Z,102240.97
2022-09-19T22:53:18.789Z,102249.53
2022-09-19T22:58:40.836Z,102247.00
2022-09-19T23:04:04.758Z,102238.03
2022-09-19T23:09:26.556Z,102232.47
2022-09-19T23:14:48.204Z,102229.06
2022-09-19T23:20:10.250Z,102225.88
2022-09-19T23:25:33.013Z,102232.53
2022-09-19T23:30:54.875Z,102233.59
2022-09-19T23:36:19.369Z,102234.69
2022-09-19T23:41:41.157Z,102239.84
2022-09-19T23:47:02.847Z,102228.72
2022-09-19T23:52:24.891Z,102233.91
2022-09-19T23:57:46.534Z,102245.03
